Time;durP1;ratioP1;P1;durP2;ratioP2;P2;SDS_P1;SDS_P2;PMS_P1;PMS_P2;Temp;Humidity;BMP_temperature;BMP_pressure;BME280_temperature;BME280_humidity;BME280_pressure;Samples;Min_cycle;Max_cycle;Signal;HPM_P1;HPM_P2
2021/12/23 00:00:41;;;;;;;184.22;53.68;;;;;;;-5.59;73.60;99384.29;1700478;83;25745;-63
2021/12/23 00:03:07;;;;;;;163.03;47.30;;;;;;;-5.63;73.64;99379.02;1700171;83;25448;-62
2021/12/23 00:05:34;;;;;;;177.40;50.40;;;;;;;-5.67;73.80;99378.56;1700012;84;29526;-62
2021/12/23 00:08:00;;;;;;;354.48;86.30;;;;;;;-5.69;73.83;99371.27;1700620;83;25483;-62
2021/12/23 00:10:27;;;;;;;298.13;74.42;;;;;;;-5.73;73.87;99366.48;1700789;83;25452;-62
2021/12/23 00:12:54;;;;;;;219.93;60.43;;;;;;;-5.79;74.06;99366.22;1700366;83;25681;-63
2021/12/23 00:15:30;;;;;;;214.27;55.73;;;;;;;-5.78;74.08;99361.72;1700146;83;25683;-62
2021/12/23 00:25:35;;;;;;;244.13;56.10;;;;;;;-5.80;74.12;99371.25;1700103;83;25670;-62
2021/12/23 00:28:03;;;;;;;202.10;49.73;;;;;;;-5.80;74.18;99362.40;1700162;84;25686;-63
2021/12/23 00:30:30;;;;;;;232.62;55.80;;;;;;;-5.80;74.19;99364.58;1700186;83;27350;-62
2021/12/23 00:32:57;;;;;;;204.28;53.63;;;;;;;-5.81;74.17;99356.22;1700231;83;25634;-62
2021/12/23 00:35:25;;;;;;;209.70;53.40;;;;;;;-5.80;74.23;99361.06;1700397;83;25426;-63
2021/12/23 00:37:57;;;;;;;217.75;53.40;;;;;;;-5.79;74.19;99357.37;1700830;83;25903;-62
2021/12/23 00:40:19;;;;;;;231.75;60.12;;;;;;;-5.75;74.14;99351.99;1699669;83;25690;-62
2021/12/23 00:42:45;;;;;;;219.45;53.90;;;;;;;-5.71;74.24;99346.58;1700433;83;27866;-63
2021/12/23 00:45:11;;;;;;;168.70;52.88;;;;;;;-5.67;74.01;99349.71;1700386;83;25429;-62
2021/12/23 00:47:38;;;;;;;243.75;79.90;;;;;;;-5.70;73.96;99352.23;1700487;83;25635;-64
2021/12/23 00:50:05;;;;;;;142.07;48.85;;;;;;;-5.64;74.02;99351.17;1700139;83;25742;-62
2021/12/23 00:52:35;;;;;;;217.32;57.33;;;;;;;-5.63;73.85;99345.64;1700686;83;25667;-63
2021/12/23 00:55:00;;;;;;;156.50;48.40;;;;;;;-5.63;73.81;99345.64;1700275;83;26310;-63
2021/12/23 00:57:28;;;;;;;176.20;53.80;;;;;;;-5.61;74.01;99338.27;1700085;84;25716;-62
2021/12/23 00:59:57;;;;;;;120.08;36.60;;;;;;;-5.58;73.83;99337.86;1700774;83;25473;-62
2021/12/23 01:02:27;;;;;;;91.65;32.20;;;;;;;-5.59;73.76;99342.89;1700914;83;25758;-62
2021/12/23 01:04:52;;;;;;;100.92;30.90;;;;;;;-5.57;73.72;99341.38;1700863;83;25618;-63
2021/12/23 01:07:18;;;;;;;111.30;34.67;;;;;;;-5.60;73.66;99331.91;1700547;83;27406;-62
2021/12/23 01:09:44;;;;;;;85.85;33.00;;;;;;;-5.60;73.62;99339.08;1700244;83;25589;-62
2021/12/23 01:12:13;;;;;;;96.65;33.85;;;;;;;-5.61;73.71;99333.43;1700299;83;25770;-64
2021/12/23 01:14:52;;;;;;;97.27;30.57;;;;;;;-5.59;73.72;99325.53;1700608;83;26655;-63
2021/12/23 01:19:50;;;;;;;103.22;34.45;;;;;;;-5.61;73.52;99330.26;1700555;83;26415;-62
2021/12/23 01:22:12;;;;;;;103.45;37.38;;;;;;;-5.63;73.54;99317.59;1700369;83;25668;-65
2021/12/23 01:24:39;;;;;;;109.60;38.13;;;;;;;-5.60;73.64;99319.05;1700606;83;25427;-63
2021/12/23 01:27:06;;;;;;;111.30;38.58;;;;;;;-5.58;73.59;99316.50;1700436;84;25796;-63
2021/12/23 01:29:32;;;;;;;161.60;52.78;;;;;;;-5.58;73.43;99312.48;1701053;83;25426;-62
2021/12/23 01:32:00;;;;;;;151.68;50.55;;;;;;;-5.53;73.37;99306.58;1701275;83;27354;-62
2021/12/23 01:34:26;;;;;;;110.92;37.17;;;;;;;-5.60;73.03;99309.20;1700227;83;25689;-63
2021/12/23 01:36:53;;;;;;;113.35;39.55;;;;;;;-5.69;73.16;99308.52;1700335;83;25453;-62
2021/12/23 01:39:19;;;;;;;92.40;34.25;;;;;;;-5.71;73.23;99299.86;1700256;83;25690;-62
2021/12/23 01:41:45;;;;;;;88.85;30.00;;;;;;;-5.72;73.24;99294.70;1700628;84;25420;-62
2021/12/23 01:44:11;;;;;;;71.20;28.05;;;;;;;-5.76;73.34;99295.59;1701051;83;27512;-62
2021/12/23 01:46:38;;;;;;;74.30;25.85;;;;;;;-5.76;73.39;99294.78;1704907;83;25609;-62
2021/12/23 01:49:04;;;;;;;71.07;25.55;;;;;;;-5.82;73.40;99287.84;1705066;83;25688;-62
2021/12/23 01:51:31;;;;;;;70.62;29.65;;;;;;;-5.81;73.50;99284.14;1705257;83;25731;-62
2021/12/23 01:53:57;;;;;;;94.83;34.92;;;;;;;-5.80;73.49;99275.63;1705664;83;25576;-63
2021/12/23 01:56:25;;;;;;;73.20;27.10;;;;;;;-5.81;73.46;99274.80;1705176;83;27385;-62
2021/12/23 01:58:53;;;;;;;71.25;26.00;;;;;;;-5.84;73.41;99277.84;1704200;84;25829;-63
2021/12/23 02:01:19;;;;;;;70.12;24.95;;;;;;;-5.82;73.61;99279.83;1705057;83;25643;-63
2021/12/23 02:03:46;;;;;;;68.25;26.80;;;;;;;-5.83;73.46;99276.84;1704857;84;25678;-62
2021/12/23 02:06:13;;;;;;;59.80;23.80;;;;;;;-5.84;73.47;99271.17;1705434;83;25462;-63
2021/12/23 02:08:40;;;;;;;62.55;25.85;;;;;;;-5.85;73.44;99270.03;1704858;84;27479;-63
2021/12/23 02:11:09;;;;;;;62.78;23.62;;;;;;;-5.86;73.47;99267.89;1704828;83;25610;-62
2021/12/23 02:13:37;;;;;;;70.50;25.55;;;;;;;-5.83;73.50;99273.34;1705150;83;25501;-63
2021/12/23 02:16:05;;;;;;;103.65;35.03;;;;;;;-5.85;73.47;99273.53;1704388;83;25884;-63
2021/12/23 02:18:32;;;;;;;103.83;32.08;;;;;;;-5.83;73.45;99270.17;1705193;83;25617;-62
2021/12/23 02:20:59;;;;;;;71.05;27.30;;;;;;;-5.82;73.38;99264.31;1704958;83;27418;-62
2021/12/23 02:23:26;;;;;;;99.75;35.85;;;;;;;-5.83;73.28;99260.83;1706922;83;25751;-62
2021/12/23 02:25:53;;;;;;;126.22;42.85;;;;;;;-5.84;73.02;99261.02;1705083;83;25760;-62
2021/12/23 02:28:22;;;;;;;123.47;42.48;;;;;;;-5.92;73.11;99257.47;1705382;83;25742;-62
2021/12/23 02:30:51;;;;;;;126.50;41.77;;;;;;;-5.94;73.09;99256.83;1705137;84;25422;-62
2021/12/23 02:33:22;;;;;;;131.32;41.75;;;;;;;-6.00;73.00;99244.73;1697827;83;27389;-62
2021/12/23 02:35:50;;;;;;;127.67;41.73;;;;;;;-6.01;73.25;99253.77;1697334;84;25680;-62
2021/12/23 02:38:16;;;;;;;130.32;43.87;;;;;;;-6.02;73.21;99247.59;1697662;84;25647;-62
2021/12/23 02:40:44;;;;;;;130.80;39.33;;;;;;;-5.99;73.41;99249.08;1697204;84;25785;-62
2021/12/23 02:43:22;;;;;;;96.15;33.15;;;;;;;-5.99;73.20;99248.55;1697316;84;25660;-62
2021/12/23 02:45:52;;;;;;;98.75;32.17;;;;;;;-5.98;73.27;99238.72;1699360;84;27493;-62
2021/12/23 02:48:26;;;;;;;101.02;35.05;;;;;;;-5.94;73.26;99238.14;1700266;83;25442;-62
2021/12/23 02:50:55;;;;;;;131.35;43.10;;;;;;;-5.91;73.20;99238.26;1700102;84;25607;-62
2021/12/23 02:53:24;;;;;;;129.03;41.45;;;;;;;-6.05;72.40;99224.83;1700056;84;25624;-61
2021/12/23 02:55:55;;;;;;;142.20;46.55;;;;;;;-6.27;72.55;99223.17;1700374;83;25603;-63
2021/12/23 02:58:22;;;;;;;136.80;47.25;;;;;;;-6.45;72.91;99215.90;1700176;84;27454;-62
2021/12/23 03:00:51;;;;;;;134.35;46.98;;;;;;;-6.58;73.07;99207.27;1700016;84;25695;-62
2021/12/23 03:03:19;;;;;;;137.25;49.00;;;;;;;-6.60;73.75;99198.61;1700134;83;25670;-62
2021/12/23 03:05:57;;;;;;;145.45;48.30;;;;;;;-6.64;73.20;99201.84;1700056;84;25777;-62
2021/12/23 03:08:40;;;;;;;131.22;45.88;;;;;;;-6.66;73.54;99193.22;1700392;83;25642;-62
2021/12/23 03:11:10;;;;;;;110.25;38.70;;;;;;;-6.71;73.46;99192.45;1700144;84;26916;-61
2021/12/23 03:13:37;;;;;;;65.42;25.02;;;;;;;-6.59;74.15;99178.13;1700225;83;25603;-62
2021/12/23 03:16:05;;;;;;;64.40;25.23;;;;;;;-6.49;74.03;99177.30;1700437;83;25664;-63
2021/12/23 03:18:31;;;;;;;56.20;21.10;;;;;;;-6.43;73.77;99176.55;1700306;83;26542;-62
2021/12/23 03:20:59;;;;;;;51.33;19.50;;;;;;;-6.38;73.75;99169.81;1700325;83;25468;-62
2021/12/23 03:23:26;;;;;;;54.30;20.97;;;;;;;-6.32;73.66;99169.89;1700171;83;27386;-62
2021/12/23 03:25:53;;;;;;;52.67;20.12;;;;;;;-6.27;73.54;99170.65;1700235;84;25576;-62
2021/12/23 03:28:19;;;;;;;61.77;24.12;;;;;;;-6.25;73.47;99174.47;1700178;84;25651;-62
2021/12/23 03:30:47;;;;;;;86.05;30.35;;;;;;;-6.22;73.50;99164.74;1700023;83;25674;-62
2021/12/23 03:33:14;;;;;;;89.92;30.88;;;;;;;-6.22;72.89;99164.74;1700461;83;25614;-62
2021/12/23 03:35:41;;;;;;;121.10;41.30;;;;;;;-6.43;72.55;99163.21;1700317;83;28274;-63
2021/12/23 03:38:08;;;;;;;130.15;43.83;;;;;;;-6.65;72.73;99165.02;1699908;84;25640;-62
2021/12/23 03:40:35;;;;;;;140.12;44.35;;;;;;;-6.79;72.99;99157.41;1700165;84;25626;-62
2021/12/23 03:43:01;;;;;;;121.90;38.38;;;;;;;-6.88;73.18;99163.85;1700016;84;25784;-61
2021/12/23 03:45:28;;;;;;;122.02;41.60;;;;;;;-6.99;73.25;99167.32;1705051;83;25441;-63
2021/12/23 03:47:54;;;;;;;155.05;46.83;;;;;;;-6.97;73.91;99163.95;1710536;83;27510;-63
2021/12/23 03:50:25;;;;;;;141.97;48.33;;;;;;;-6.90;73.75;99164.53;1710366;83;25611;-61
2021/12/23 03:52:52;;;;;;;159.82;51.68;;;;;;;-6.91;73.67;99159.70;1710803;83;25746;-62
2021/12/23 03:55:19;;;;;;;145.45;48.10;;;;;;;-6.94;73.78;99155.58;1710351;83;25835;-62
2021/12/23 03:57:47;;;;;;;159.65;47.85;;;;;;;-7.02;73.44;99157.03;1710456;83;25710;-62
2021/12/23 04:00:18;;;;;;;176.40;53.98;;;;;;;-7.08;73.69;99157.78;1710682;83;27473;-61
2021/12/23 04:02:44;;;;;;;;;;;;;;;-7.01;74.10;99158.67;1713431;83;25490;-62
2021/12/23 04:05:12;;;;;;;132.00;41.48;;;;;;;-6.98;73.81;99147.64;1710782;83;25622;-61
2021/12/23 04:07:41;;;;;;;140.47;44.27;;;;;;;-7.04;73.77;99147.06;1710832;83;25757;-61
2021/12/23 04:10:11;;;;;;;132.35;43.92;;;;;;;-7.10;73.72;99156.63;1710569;83;25678;-61
2021/12/23 04:12:37;;;;;;;132.82;43.48;;;;;;;-7.09;74.00;99149.44;1709609;83;26831;-61
2021/12/23 04:15:05;;;;;;;142.07;47.03;;;;;;;-7.01;74.03;99140.52;1710475;83;25686;-61
2021/12/23 04:17:32;;;;;;;149.23;49.05;;;;;;;-7.13;73.48;99143.68;1710816;83;25618;-62
2021/12/23 04:20:02;;;;;;;147.15;48.42;;;;;;;-7.20;73.72;99150.24;1710681;83;25767;-63
2021/12/23 04:22:26;;;;;;;147.35;48.92;;;;;;;-7.20;74.22;99152.91;1710663;83;25659;-61
2021/12/23 04:24:53;;;;;;;153.87;49.33;;;;;;;-7.10;73.99;99145.13;1710899;83;27503;-61
2021/12/23 04:27:19;;;;;;;152.02;47.83;;;;;;;-7.18;73.71;99144.73;1710453;83;25717;-61
2021/12/23 04:29:45;;;;;;;145.47;48.20;;;;;;;-7.21;73.83;99132.62;1710529;83;25628;-62
2021/12/23 04:32:11;;;;;;;143.37;47.13;;;;;;;-7.15;74.45;99130.20;1710855;83;25689;-61
2021/12/23 04:34:37;;;;;;;143.00;48.45;;;;;;;-7.13;73.74;99133.02;1710747;83;25731;-62
2021/12/23 04:37:04;;;;;;;146.45;49.80;;;;;;;-7.20;73.87;99128.12;1710542;83;27443;-61
2021/12/23 04:39:30;;;;;;;150.62;46.58;;;;;;;-7.22;74.10;99126.14;1710611;83;25613;-63
2021/12/23 04:41:57;;;;;;;141.65;47.05;;;;;;;-7.14;74.15;99118.03;1710529;83;25757;-65
2021/12/23 04:44:23;;;;;;;157.60;49.85;;;;;;;-7.05;74.50;99104.92;1710304;83;27847;-62
2021/12/23 04:46:49;;;;;;;146.87;48.63;;;;;;;-7.11;73.34;99098.20;1710378;83;25770;-62
2021/12/23 04:49:15;;;;;;;144.60;47.08;;;;;;;-7.25;73.47;99102.05;1710390;83;29522;-62
2021/12/23 04:51:42;;;;;;;147.93;48.33;;;;;;;-7.32;73.75;99092.63;1710747;83;25469;-62
2021/12/23 04:54:08;;;;;;;141.82;48.48;;;;;;;-7.35;73.69;99089.50;1710639;83;25418;-62
2021/12/23 04:56:34;;;;;;;147.43;49.13;;;;;;;-7.41;73.82;99092.91;1710511;83;25792;-62
2021/12/23 04:59:00;;;;;;;155.25;50.83;;;;;;;-7.36;74.46;99083.38;1710644;83;25598;-62
2021/12/23 05:01:29;;;;;;;153.93;50.88;;;;;;;-7.26;74.20;99079.59;1710497;83;29535;-62
2021/12/23 05:03:56;;;;;;;164.00;53.92;;;;;;;-7.20;74.20;99083.66;1710436;83;25548;-61
2021/12/23 05:06:22;;;;;;;148.82;49.35;;;;;;;-7.06;74.46;99078.47;1710539;83;25725;-63
2021/12/23 05:08:48;;;;;;;153.97;49.08;;;;;;;-7.12;73.06;99077.89;1710466;83;27781;-62
2021/12/23 05:11:16;;;;;;;149.25;48.65;;;;;;;-7.33;73.37;99079.01;1710463;83;25654;-62
2021/12/23 05:13:44;;;;;;;147.20;47.48;;;;;;;-7.39;73.74;99085.56;1710757;83;27606;-62
2021/12/23 05:16:10;;;;;;;156.20;50.33;;;;;;;-7.43;73.83;99084.61;1710693;83;25928;-61
2021/12/23 05:18:36;;;;;;;160.30;49.58;;;;;;;-7.48;74.00;99079.03;1710608;83;25507;-62
2021/12/23 05:21:03;;;;;;;150.93;50.17;;;;;;;-7.46;74.16;99082.31;1710449;83;25797;-62
2021/12/23 05:23:30;;;;;;;150.03;50.12;;;;;;;-7.39;74.83;99072.25;1709587;83;25623;-62
2021/12/23 05:25:56;;;;;;;166.15;53.00;;;;;;;-7.18;74.58;99065.66;1710434;83;27498;-61
2021/12/23 05:28:22;;;;;;;158.93;48.98;;;;;;;-7.07;74.33;99065.67;1710971;83;25494;-61
2021/12/23 05:30:49;;;;;;;137.77;46.92;;;;;;;-6.96;73.84;99068.36;1709563;83;25674;-61
2021/12/23 05:33:15;;;;;;;144.57;47.20;;;;;;;-6.94;73.62;99065.50;1710966;83;25864;-62
2021/12/23 05:35:41;;;;;;;142.87;46.68;;;;;;;-6.97;73.20;99071.21;1710643;83;25615;-62
2021/12/23 05:38:08;;;;;;;143.62;47.62;;;;;;;-7.04;73.44;99057.80;1710501;83;29397;-64
2021/12/23 05:40:35;;;;;;;142.20;45.40;;;;;;;-7.15;72.92;99051.13;1710499;83;26483;-62
2021/12/23 05:43:03;;;;;;;154.47;52.65;;;;;;;-7.41;73.18;99047.14;1710601;83;25620;-62
2021/12/23 05:45:29;;;;;;;160.75;50.38;;;;;;;-7.53;73.71;99053.95;1708044;83;25818;-62
2021/12/23 05:47:56;;;;;;;170.25;55.25;;;;;;;-7.63;73.76;99051.59;1698293;84;25691;-62
2021/12/23 05:50:24;;;;;;;174.80;56.23;;;;;;;-7.67;73.98;99052.45;1698086;84;27398;-62
2021/12/23 05:52:52;;;;;;;118.00;39.18;;;;;;;-7.65;74.41;99052.27;1698410;83;25435;-62
2021/12/23 05:55:19;;;;;;;125.45;46.63;;;;;;;-7.53;74.63;99044.14;1698070;83;25715;-61
2021/12/23 05:57:46;;;;;;;65.67;24.75;;;;;;;-7.42;74.64;99041.52;1698114;83;25788;-62
2021/12/23 06:00:17;;;;;;;64.58;23.35;;;;;;;-7.32;74.63;99038.53;1698334;83;25654;-62
2021/12/23 06:02:45;;;;;;;45.05;15.60;;;;;;;-7.22;74.53;99029.77;1698472;84;28144;-64
2021/12/23 06:05:12;;;;;;;33.20;14.55;;;;;;;-7.18;74.63;99032.86;1697982;84;25677;-62
2021/12/23 06:07:40;;;;;;;40.92;18.12;;;;;;;-7.12;74.72;99025.45;1698494;84;25687;-62
2021/12/23 06:10:08;;;;;;;33.70;11.33;;;;;;;-7.05;74.69;99021.53;1698057;84;25681;-62
2021/12/23 06:12:34;;;;;;;26.35;11.53;;;;;;;-6.95;74.57;99009.20;1698312;84;25739;-63
2021/12/23 06:15:00;;;;;;;30.57;10.08;;;;;;;-6.86;74.40;99005.41;1698340;84;27561;-63
2021/12/23 06:17:26;;;;;;;28.55;10.30;;;;;;;-6.82;74.19;99004.53;1698059;83;27266;-63
2021/12/23 06:19:53;;;;;;;30.32;11.45;;;;;;;-6.78;74.10;99001.78;1698097;83;25489;-62
2021/12/23 06:22:19;;;;;;;27.82;10.32;;;;;;;-6.72;73.91;99006.35;1698112;83;27744;-62
2021/12/23 06:24:48;;;;;;;27.67;9.40;;;;;;;-6.65;73.87;99008.25;1698299;84;25466;-63
2021/12/23 06:27:17;;;;;;;34.08;12.35;;;;;;;-6.64;73.64;98997.89;1698070;84;27610;-62
2021/12/23 06:29:43;;;;;;;33.73;12.58;;;;;;;-6.62;73.57;99004.67;1697976;84;25695;-62
2021/12/23 06:32:10;;;;;;;37.03;12.88;;;;;;;-6.58;73.66;98990.46;1698543;83;25425;-63
2021/12/23 06:34:36;;;;;;;34.63;11.70;;;;;;;-6.56;73.55;98994.58;1698310;84;26478;-61
2021/12/23 06:37:04;;;;;;;31.60;11.90;;;;;;;-6.54;73.43;98986.38;1698374;84;25462;-62
2021/12/23 06:39:36;;;;;;;32.73;12.85;;;;;;;-6.50;73.35;98985.50;1698395;83;27970;-61
2021/12/23 06:42:03;;;;;;;59.58;21.57;;;;;;;-6.47;73.33;98982.44;1698231;84;25465;-61
2021/12/23 06:44:30;;;;;;;42.85;16.50;;;;;;;-6.44;73.43;98982.05;1698343;83;25497;-61
2021/12/23 06:46:56;;;;;;;136.88;44.20;;;;;;;-6.40;73.34;98981.17;1714064;82;25933;-61
2021/12/23 06:49:23;;;;;;;120.85;49.48;;;;;;;-6.34;73.42;98989.20;1723704;83;25597;-62
2021/12/23 06:51:49;;;;;;;148.47;49.33;;;;;;;-6.30;73.28;98982.45;1723743;82;27425;-62
2021/12/23 06:54:17;;;;;;;182.78;74.72;;;;;;;-6.24;73.21;98982.70;1723629;82;25404;-63
2021/12/23 06:56:44;;;;;;;59.95;21.90;;;;;;;-6.22;73.28;98976.14;1723897;82;25596;-62
2021/12/23 06:59:14;;;;;;;91.82;30.57;;;;;;;-6.22;72.88;98970.80;1723711;82;25738;-61
2021/12/23 07:01:39;;;;;;;82.95;27.30;;;;;;;-6.19;73.07;98977.08;1723410;82;25688;-61
2021/12/23 07:04:17;;;;;;;51.30;18.65;;;;;;;-6.15;72.89;98979.36;1723756;82;27416;-63
2021/12/23 07:06:58;;;;;;;65.05;22.52;;;;;;;-6.12;72.89;98973.13;1723323;82;25729;-63
2021/12/23 07:09:16;;;;;;;74.55;21.75;;;;;;;-6.10;72.85;98969.73;1723628;82;25744;-62
2021/12/23 07:11:43;;;;;;;69.50;21.00;;;;;;;-6.07;72.35;98968.02;1723603;83;25797;-61
2021/12/23 07:14:09;;;;;;;61.68;20.97;;;;;;;-6.05;72.46;98969.15;1723629;83;25657;-63
2021/12/23 07:16:38;;;;;;;45.08;16.77;;;;;;;-6.02;72.39;98968.72;1723449;83;27392;-62
2021/12/23 07:19:05;;;;;;;59.15;19.95;;;;;;;-5.93;72.50;98966.73;1723512;82;25888;-61
2021/12/23 07:21:31;;;;;;;143.57;43.52;;;;;;;-5.88;72.31;98958.14;1723804;83;25508;-62
2021/12/23 07:23:57;;;;;;;170.75;57.90;;;;;;;-5.82;72.36;98955.98;1723463;83;25796;-65
2021/12/23 07:26:24;;;;;;;216.80;72.67;;;;;;;-5.93;71.72;98952.06;1724150;83;25441;-62
2021/12/23 07:28:50;;;;;;;177.53;58.10;;;;;;;-5.99;72.08;98952.84;1723472;83;27433;-63
2021/12/23 07:31:16;;;;;;;181.63;60.88;;;;;;;-6.06;72.01;98952.33;1723989;82;25764;-63
2021/12/23 07:33:43;;;;;;;169.10;54.95;;;;;;;-6.10;71.93;98948.39;1723491;83;25737;-64
2021/12/23 07:36:10;;;;;;;130.72;47.48;;;;;;;-6.12;71.82;98953.12;1723447;83;25798;-63
2021/12/23 07:38:37;;;;;;;160.72;53.25;;;;;;;-6.11;71.58;98954.76;1723707;83;25476;-64
2021/12/23 07:41:03;;;;;;;127.40;38.60;;;;;;;-6.15;71.42;98950.84;1724301;82;27483;-64
2021/12/23 07:46:04;;;;;;;138.90;48.05;;;;;;;-6.13;71.55;98958.66;1720626;83;25690;-64
2021/12/23 07:48:31;;;;;;;162.62;58.90;;;;;;;-6.11;71.48;98966.77;1698498;82;26795;-64
2021/12/23 07:50:59;;;;;;;176.55;60.63;;;;;;;-6.10;71.58;98959.06;1698862;83;25703;-64
2021/12/23 07:53:25;;;;;;;165.15;56.75;;;;;;;-6.06;71.72;98954.17;1699853;82;27500;-62
2021/12/23 07:55:52;;;;;;;188.75;67.97;;;;;;;-6.06;71.44;98949.67;1697843;84;25525;-65
2021/12/23 07:58:18;;;;;;;169.75;59.48;;;;;;;-6.05;71.80;98941.13;1697848;84;25763;-62
2021/12/23 08:00:45;;;;;;;173.90;61.45;;;;;;;-6.01;71.56;98934.37;1698611;83;26483;-62
2021/12/23 08:03:11;;;;;;;202.43;69.70;;;;;;;-5.95;71.71;98938.91;1697998;84;25589;-62
2021/12/23 08:05:37;;;;;;;201.52;68.75;;;;;;;-5.92;71.95;98936.34;1698468;82;27622;-62
2021/12/23 08:08:04;;;;;;;187.47;64.62;;;;;;;-5.88;71.76;98938.12;1697794;83;25674;-63
2021/12/23 08:10:31;;;;;;;204.18;70.70;;;;;;;-5.80;71.86;98939.27;1698642;84;25685;-62
2021/12/23 08:12:57;;;;;;;192.72;69.30;;;;;;;-5.76;71.61;98933.83;1698215;82;27866;-63
2021/12/23 08:15:23;;;;;;;197.17;71.30;;;;;;;-5.65;71.60;98931.63;1698739;83;25781;-62
2021/12/23 08:17:51;;;;;;;211.10;74.47;;;;;;;-5.51;72.29;98931.97;1698701;83;27421;-62
2021/12/23 08:20:17;;;;;;;235.45;77.10;;;;;;;-5.33;71.65;98915.36;1698635;83;25444;-62
2021/12/23 08:22:44;;;;;;;210.02;68.87;;;;;;;-5.30;71.36;98917.63;1698479;83;25424;-61
2021/12/23 08:25:12;;;;;;;226.90;77.55;;;;;;;-5.29;71.32;98914.45;1698131;82;27861;-61
2021/12/23 08:27:40;;;;;;;223.13;77.78;;;;;;;-5.25;71.68;98916.18;1698366;82;25422;-63
2021/12/23 08:30:09;;;;;;;209.07;75.45;;;;;;;-5.11;71.87;98908.50;1698265;82;27405;-63
2021/12/23 08:32:36;;;;;;;219.30;74.90;;;;;;;-4.99;71.71;98910.55;1698546;83;25450;-63
2021/12/23 08:35:03;;;;;;;213.40;74.10;;;;;;;-4.92;71.29;98904.71;1698517;82;25620;-63
2021/12/23 08:37:30;;;;;;;247.93;81.17;;;;;;;-4.84;70.95;98907.16;1698446;82;25738;-64
2021/12/23 08:39:57;;;;;;;213.87;74.95;;;;;;;-4.73;70.94;98905.72;1698047;83;25682;-62
2021/12/23 08:42:24;;;;;;;206.90;74.80;;;;;;;-4.60;70.83;98893.36;1698376;83;27450;-63
2021/12/23 08:44:51;;;;;;;175.65;63.17;;;;;;;-4.41;71.34;98887.65;1698128;82;25630;-62
2021/12/23 08:47:18;;;;;;;186.82;67.80;;;;;;;-4.23;70.05;98880.83;1698946;84;25489;-62
2021/12/23 08:49:46;;;;;;;205.98;68.22;;;;;;;-4.13;70.15;98873.16;1700582;82;25712;-64
2021/12/23 08:52:13;;;;;;;182.80;66.25;;;;;;;-4.00;70.62;98868.80;1700173;83;25751;-62
2021/12/23 08:54:42;;;;;;;226.18;70.83;;;;;;;-3.88;70.08;98859.57;1701044;82;27522;-63
2021/12/23 08:57:10;;;;;;;194.10;63.85;;;;;;;-3.80;70.49;98856.66;1700488;82;25838;-63
2021/12/23 08:59:38;;;;;;;173.13;63.20;;;;;;;-3.62;70.30;98856.44;1700257;83;25601;-62
2021/12/23 09:02:06;;;;;;;180.30;64.40;;;;;;;-3.51;69.81;98850.91;1700462;82;25765;-63
2021/12/23 09:04:33;;;;;;;191.73;69.62;;;;;;;-3.39;69.92;98847.84;1701565;82;25665;-63
2021/12/23 09:07:00;;;;;;;192.60;66.37;;;;;;;-3.30;69.80;98841.18;1700288;84;27200;-62
2021/12/23 09:09:31;;;;;;;178.95;64.80;;;;;;;-3.22;69.95;98839.27;1702817;82;25657;-63
2021/12/23 09:11:56;;;;;;;200.07;70.45;;;;;;;-3.09;70.07;98825.74;1700414;83;25425;-64
2021/12/23 09:14:23;;;;;;;208.80;70.87;;;;;;;-3.11;69.23;98833.72;1700350;83;25746;-63
2021/12/23 09:16:50;;;;;;;192.07;69.00;;;;;;;-3.16;69.54;98834.37;1699247;84;25654;-63
2021/12/23 09:19:17;;;;;;;320.30;98.78;;;;;;;-3.26;69.39;98840.75;1699404;83;27588;-63
2021/12/23 09:21:44;;;;;;;416.40;128.27;;;;;;;-3.28;69.48;98841.77;1701218;83;25600;-63
2021/12/23 09:24:11;;;;;;;400.35;122.42;;;;;;;-3.19;70.32;98840.97;1701140;82;25443;-62
2021/12/23 09:26:45;;;;;;;138.50;48.75;;;;;;;-3.10;70.13;98828.64;1700739;83;25950;-62
2021/12/23 09:32:38;;;;;;;114.82;45.33;;;;;;;-2.99;70.35;98823.91;1700522;83;25452;-63
2021/12/23 09:34:27;;;;;;;73.90;29.27;;;;;;;-2.80;69.06;98803.30;1700340;83;25691;-63
2021/12/23 09:36:55;;;;;;;72.65;27.90;;;;;;;-2.83;68.87;98809.61;1702303;82;25710;-63
2021/12/23 09:39:22;;;;;;;71.87;28.15;;;;;;;-2.91;68.92;98806.19;1700568;82;25696;-62
2021/12/23 09:41:49;;;;;;;72.20;30.27;;;;;;;-2.89;69.40;98805.96;1701058;83;25646;-63
2021/12/23 09:44:16;;;;;;;73.55;29.40;;;;;;;-2.84;69.83;98795.91;1700928;82;27619;-62
2021/12/23 09:46:43;;;;;;;57.17;24.52;;;;;;;-2.79;69.38;98794.73;1700847;83;25678;-62
2021/12/23 09:49:10;;;;;;;54.10;22.17;;;;;;;-2.80;68.75;98789.05;1698087;84;25473;-63
2021/12/23 09:51:37;;;;;;;126.00;51.08;;;;;;;-2.80;68.46;98786.38;1698203;84;25849;-63
2021/12/23 09:54:08;;;;;;;68.78;26.52;;;;;;;-2.80;68.45;98775.64;1699370;82;25641;-62
2021/12/23 09:56:36;;;;;;;73.02;28.83;;;;;;;-2.75;68.66;98766.92;1698998;82;27393;-61
2021/12/23 09:59:07;;;;;;;145.10;49.55;;;;;;;-2.70;69.00;98753.67;1698158;83;25623;-62
2021/12/23 10:01:34;;;;;;;128.60;43.48;;;;;;;-2.67;68.50;98751.88;1698508;83;29012;-62
2021/12/23 10:04:01;;;;;;;66.77;28.12;;;;;;;-2.66;68.56;98747.64;1698266;82;25860;-63
2021/12/23 10:06:28;;;;;;;183.07;60.90;;;;;;;-2.59;68.98;98736.01;1698093;82;25409;-62
2021/12/23 10:08:55;;;;;;;68.90;28.92;;;;;;;-2.48;68.95;98733.89;1698207;83;27581;-63
2021/12/23 10:11:48;;;;;;;78.75;32.20;;;;;;;-2.41;68.83;98737.84;1697810;84;25739;-63
2021/12/23 10:38:36;;;;;;;47.45;19.67;;;;;;;-2.17;67.04;98661.41;1705704;83;25734;-62
2021/12/23 10:41:11;;;;;;;51.68;23.42;;;;;;;-2.19;67.11;98650.90;1705487;83;25693;-61
2021/12/23 10:43:48;;;;;;;51.20;17.67;;;;;;;-2.24;66.54;98637.88;1706030;83;25666;-62
2021/12/23 10:46:22;;;;;;;55.33;21.15;;;;;;;-2.23;67.15;98631.45;1705885;83;25606;-61
2021/12/23 10:52:07;;;;;;;39.45;16.00;;;;;;;-2.14;67.96;98617.99;1701736;83;25642;-61
2021/12/23 11:00:30;;;;;;;37.15;16.37;;;;;;;-1.99;67.46;98605.45;1701628;84;25714;-61
2021/12/23 11:03:27;;;;;;;41.37;16.73;;;;;;;-1.90;67.71;98596.00;1701382;84;30213;-61
2021/12/23 11:06:11;;;;;;;45.33;17.30;;;;;;;-1.85;67.40;98592.62;1700915;84;25486;-61
2021/12/23 11:08:57;;;;;;;35.40;14.70;;;;;;;-1.78;67.96;98581.22;1699512;84;25417;-61
2021/12/23 11:12:08;;;;;;;36.20;16.35;;;;;;;-1.75;67.38;98583.16;1700201;83;25603;-63
2021/12/23 11:41:52;;;;;;;33.85;16.87;;;;;;;-1.33;66.88;98500.19;1702038;84;25600;-63
2021/12/23 11:44:15;;;;;;;40.33;17.95;;;;;;;-1.24;66.97;98491.20;1701562;83;25820;-62
2021/12/23 11:46:48;;;;;;;40.65;18.65;;;;;;;-1.28;66.01;98484.96;1701472;84;25756;-62
2021/12/23 11:49:13;;;;;;;39.48;17.90;;;;;;;-1.22;66.34;98482.34;1701669;82;25413;-61
2021/12/23 11:51:51;;;;;;;39.80;17.48;;;;;;;-1.17;66.55;98485.97;1701820;84;25734;-62
2021/12/23 11:54:16;;;;;;;40.85;17.15;;;;;;;-1.08;67.08;98483.70;1701633;84;25420;-62
2021/12/23 11:56:50;;;;;;;42.73;18.95;;;;;;;-0.93;66.73;98480.47;1701975;84;27435;-61
2021/12/23 11:59:19;;;;;;;41.58;19.82;;;;;;;-0.82;66.77;98480.63;1701862;84;25668;-61
2021/12/23 12:01:53;;;;;;;49.58;21.02;;;;;;;-0.74;66.71;98480.25;1701726;84;25702;-60
2021/12/23 12:04:31;;;;;;;43.40;18.07;;;;;;;-0.69;66.37;98464.72;1701255;84;25750;-61
2021/12/23 12:06:59;;;;;;;42.85;20.08;;;;;;;-0.68;66.16;98460.95;1701734;84;25488;-61
2021/12/23 12:09:31;;;;;;;43.78;19.15;;;;;;;-0.69;66.54;98462.82;1701581;84;29476;-61
2021/12/23 12:12:09;;;;;;;39.50;17.55;;;;;;;-0.65;66.51;98453.73;1701629;84;25579;-61
2021/12/23 12:14:41;;;;;;;34.65;16.67;;;;;;;-0.67;66.12;98441.88;1701816;84;25699;-61
2021/12/23 12:17:33;;;;;;;44.18;18.57;;;;;;;-0.70;65.43;98444.23;1701492;83;25731;-61
2021/12/23 12:20:15;;;;;;;50.00;18.70;;;;;;;-0.70;65.73;98436.16;1701635;84;25394;-61
2021/12/23 12:22:58;;;;;;;48.20;19.02;;;;;;;-0.68;66.11;98450.19;1701666;83;25807;-61
2021/12/23 12:25:30;;;;;;;29.82;14.13;;;;;;;-0.69;66.04;98446.67;1701849;84;26444;-61
2021/12/23 12:28:01;;;;;;;36.42;16.73;;;;;;;-0.66;65.07;98446.19;1702136;84;25479;-62
2021/12/23 12:30:54;;;;;;;37.85;18.32;;;;;;;-0.66;65.72;98452.91;1701969;84;25768;-61
2021/12/23 12:33:28;;;;;;;41.37;18.00;;;;;;;-0.59;66.09;98437.95;1701704;83;25467;-62